Time;durP1;ratioP1;P1;durP2;ratioP2;P2;SDS_P1;SDS_P2;PMS_P1;PMS_P2;Temp;Humidity;BMP_temperature;BMP_pressure;BME280_temperature;BME280_humidity;BME280_pressure;Samples;Min_cycle;Max_cycle;Signal;HPM_P1;HPM_P2
2022/04/23 00:00:28;;;;;;;5.72;2.17;;;;;;;14.54;44.30;93926.56;5017614;28;20203;-65
2022/04/23 00:02:59;;;;;;;3.55;2.60;;;;;;;14.55;44.38;93935.69;5001800;28;20619;-65
2022/04/23 00:05:28;;;;;;;3.63;2.25;;;;;;;14.56;44.49;93926.97;5017881;28;20291;-65
2022/04/23 00:07:56;;;;;;;2.60;2.33;;;;;;;14.57;44.48;93931.31;5001528;28;20207;-65
2022/04/23 00:10:24;;;;;;;3.00;2.30;;;;;;;14.59;44.44;93923.34;5001401;28;20199;-65
2022/04/23 00:12:54;;;;;;;5.00;4.50;;;;;;;14.60;44.75;93932.50;5017767;28;20191;-65
2022/04/23 00:15:21;;;;;;;3.83;2.40;;;;;;;14.59;44.53;93928.91;5001201;28;20202;-65
2022/04/23 00:17:49;;;;;;;3.38;2.75;;;;;;;14.59;44.89;93925.34;5001352;28;20285;-65
2022/04/23 00:20:23;;;;;;;3.10;2.53;;;;;;;14.57;44.72;93909.13;5001375;28;20282;-65
2022/04/23 00:22:51;;;;;;;3.15;2.10;;;;;;;14.57;44.66;93916.66;5001199;28;20231;-65
2022/04/23 00:25:19;;;;;;;2.40;2.20;;;;;;;14.59;44.45;93923.34;5001246;28;20199;-65
2022/04/23 00:27:48;;;;;;;3.10;2.08;;;;;;;14.59;44.18;93919.78;5018588;28;20202;-65
2022/04/23 00:30:16;;;;;;;3.22;2.17;;;;;;;14.60;44.03;93918.63;5018209;28;20184;-65
2022/04/23 00:32:44;;;;;;;3.05;2.00;;;;;;;14.59;44.30;93919.78;5018429;28;20183;-65
2022/04/23 00:35:14;;;;;;;2.65;2.20;;;;;;;14.61;44.33;93922.97;5017986;28;20515;-65
2022/04/23 00:37:42;;;;;;;3.25;2.17;;;;;;;14.62;44.76;93924.53;5000324;28;20222;-65
2022/04/23 00:40:16;;;;;;;2.97;2.45;;;;;;;14.63;44.35;93923.34;5018046;28;20249;-65
2022/04/23 00:42:51;;;;;;;3.42;2.35;;;;;;;14.62;44.19;93916.22;5017899;28;20187;-65
2022/04/23 00:45:19;;;;;;;2.45;2.25;;;;;;;14.62;44.50;93917.00;5033051;28;20199;-65
2022/04/23 00:47:46;;;;;;;4.22;2.30;;;;;;;14.63;44.10;93921.38;5017484;28;20191;-65
2022/04/23 00:50:15;;;;;;;2.88;1.95;;;;;;;14.65;44.21;93918.97;5017642;28;20189;-65
2022/04/23 00:52:47;;;;;;;5.38;2.22;;;;;;;14.65;44.34;93918.19;5000788;28;20195;-65
2022/04/23 00:55:17;;;;;;;3.13;2.20;;;;;;;14.67;44.46;93919.34;5017620;28;20203;-65
2022/04/23 00:57:43;;;;;;;3.03;2.20;;;;;;;14.69;44.68;93930.81;5017680;28;20233;-65
2022/04/23 01:00:12;;;;;;;3.63;2.30;;;;;;;14.71;44.71;93924.88;5017433;28;20710;-65
2022/04/23 01:02:40;;;;;;;2.97;2.50;;;;;;;14.68;44.42;93936.78;5000632;28;20195;-65
2022/04/23 01:05:09;;;;;;;4.22;2.42;;;;;;;14.66;44.55;93941.94;5000182;28;20206;-65
2022/04/23 01:07:39;;;;;;;5.13;2.38;;;;;;;14.66;44.78;93944.72;5017718;28;20238;-65
2022/04/23 01:10:10;;;;;;;2.58;2.38;;;;;;;14.68;44.51;93943.13;5000288;28;20206;-65
2022/04/23 01:12:40;;;;;;;3.20;2.33;;;;;;;14.66;44.60;93937.19;5017550;28;20179;-65
2022/04/23 01:15:09;;;;;;;3.55;2.13;;;;;;;14.66;44.77;93939.16;5000064;28;20271;-65
2022/04/23 01:17:37;;;;;;;3.95;2.10;;;;;;;14.62;44.92;93939.19;5000266;28;20233;-65
2022/04/23 01:20:13;;;;;;;4.45;2.72;;;;;;;14.60;44.93;93929.72;5017135;28;20191;-65
2022/04/23 01:22:42;;;;;;;4.35;2.70;;;;;;;14.59;44.92;93930.88;5000924;28;20214;-65
2022/04/23 01:25:12;;;;;;;4.57;2.50;;;;;;;14.58;45.13;93919.00;5017390;28;20199;-65
2022/04/23 01:27:41;;;;;;;2.95;2.30;;;;;;;14.54;45.69;93912.69;5016987;28;20215;-65
2022/04/23 01:30:13;;;;;;;3.22;2.25;;;;;;;14.53;45.06;93913.91;5017214;28;20187;-65
2022/04/23 01:32:41;;;;;;;4.70;2.30;;;;;;;14.51;45.62;93915.50;5016976;28;20190;-65
2022/04/23 01:35:11;;;;;;;3.70;2.22;;;;;;;14.51;45.21;93919.06;5000149;28;20341;-65
2022/04/23 01:37:39;;;;;;;4.80;2.35;;;;;;;14.53;45.59;93913.13;5016731;28;20219;-65
2022/04/23 01:40:11;;;;;;;3.53;2.38;;;;;;;14.53;45.36;93913.91;5009031;28;20196;-65
2022/04/23 01:42:39;;;;;;;4.07;2.53;;;;;;;14.49;45.39;93924.19;5000061;28;20257;-65
2022/04/23 01:45:08;;;;;;;4.10;2.22;;;;;;;14.49;45.47;93926.97;5017259;28;20191;-65
2022/04/23 01:47:36;;;;;;;5.35;2.40;;;;;;;14.53;45.66;93927.78;5016851;28;20214;-65
2022/04/23 01:50:05;;;;;;;2.92;2.30;;;;;;;14.57;45.64;93933.31;4999452;28;20206;-65
2022/04/23 01:52:39;;;;;;;4.93;2.38;;;;;;;14.58;45.56;93929.31;4999479;28;20203;-65
2022/04/23 01:55:08;;;;;;;3.70;2.40;;;;;;;14.61;45.41;93931.28;5016503;28;20603;-65
2022/04/23 01:57:38;;;;;;;2.97;2.20;;;;;;;14.61;45.63;93925.75;5016456;28;20183;-65
2022/04/23 02:00:08;;;;;;;3.65;2.40;;;;;;;14.61;45.87;93926.53;5016574;28;20202;-65
2022/04/23 02:02:37;;;;;;;4.07;2.35;;;;;;;14.62;45.66;93927.31;5016874;28;20195;-65
2022/04/23 02:05:06;;;;;;;3.58;2.22;;;;;;;14.63;46.58;93928.88;4999705;28;20199;-65
2022/04/23 02:07:43;;;;;;;5.03;2.50;;;;;;;14.51;49.06;93937.69;4999314;28;20199;-65
2022/04/23 02:10:13;;;;;;;3.08;2.22;;;;;;;14.45;48.05;93935.31;5008180;28;20209;-65
2022/04/23 02:12:42;;;;;;;4.15;2.33;;;;;;;14.38;48.03;93937.34;5016144;28;20575;-65
2022/04/23 02:15:13;;;;;;;3.83;2.20;;;;;;;14.40;47.04;93938.50;4999347;28;20208;-65
2022/04/23 02:17:42;;;;;;;3.33;2.10;;;;;;;14.44;46.87;93930.16;4999114;28;20658;-65
2022/04/23 02:20:15;;;;;;;3.05;2.42;;;;;;;14.48;46.49;93930.94;5015437;28;20207;-65
2022/04/23 02:22:49;;;;;;;3.30;2.40;;;;;;;14.52;46.50;93925.38;4999559;28;20203;-65
2022/04/23 02:25:19;;;;;;;4.22;2.70;;;;;;;14.55;46.56;93938.44;5016305;28;20286;-65
2022/04/23 02:27:49;;;;;;;4.15;2.70;;;;;;;14.55;46.35;93939.25;5015616;28;20257;-65
2022/04/23 02:30:18;;;;;;;3.88;2.30;;;;;;;14.57;46.70;93938.84;5014848;28;20238;-65
2022/04/23 02:32:47;;;;;;;3.95;2.20;;;;;;;14.59;46.52;93939.22;5016222;28;20201;-65
2022/04/23 02:35:16;;;;;;;7.20;2.75;;;;;;;14.59;46.78;93942.00;4999435;28;20206;-65
2022/04/23 02:37:49;;;;;;;2.90;2.60;;;;;;;14.57;46.94;93941.63;4998532;28;20211;-65
2022/04/23 02:40:17;;;;;;;3.22;2.67;;;;;;;14.46;47.05;93944.44;4998748;28;20221;-65
2022/04/23 02:42:46;;;;;;;3.15;2.58;;;;;;;14.35;47.03;93950.03;5016197;28;20205;-65
2022/04/23 02:45:15;;;;;;;3.03;2.72;;;;;;;14.22;47.78;93948.91;5015656;28;20187;-65
2022/04/23 02:47:44;;;;;;;5.95;2.90;;;;;;;14.11;48.07;93951.72;5015648;28;20516;-65
2022/04/23 02:50:12;;;;;;;3.28;2.25;;;;;;;14.05;48.13;93950.56;4998559;28;20203;-65
2022/04/23 02:52:42;;;;;;;5.43;2.97;;;;;;;13.97;48.62;93946.22;5015821;28;20205;-65
2022/04/23 02:55:12;;;;;;;3.35;2.50;;;;;;;13.92;48.90;93950.22;5014945;28;20191;-64
2022/04/23 02:57:41;;;;;;;3.90;2.47;;;;;;;13.85;49.08;93957.75;4998405;28;20681;-65
2022/04/23 03:00:12;;;;;;;3.80;2.50;;;;;;;13.83;49.17;93957.34;5014827;28;20203;-65
2022/04/23 03:02:44;;;;;;;3.28;2.72;;;;;;;13.78;49.37;93960.56;5015579;28;20191;-65
2022/04/23 03:05:17;;;;;;;5.10;2.60;;;;;;;13.71;50.35;93947.50;4998091;28;20702;-65
2022/04/23 03:07:47;;;;;;;4.20;2.58;;;;;;;13.65;50.10;93941.59;5015634;28;20233;-65
2022/04/23 03:10:22;;;;;;;4.00;2.75;;;;;;;13.63;50.72;93943.97;5014567;28;20199;-65
2022/04/23 03:12:50;;;;;;;3.47;2.70;;;;;;;13.61;51.04;93946.34;5015503;28;20179;-65
2022/04/23 03:15:18;;;;;;;3.40;2.55;;;;;;;13.57;51.71;93950.31;5015605;28;20191;-65
2022/04/23 03:17:50;;;;;;;2.78;2.55;;;;;;;13.52;50.63;93951.50;5015400;28;20191;-65
2022/04/23 03:20:21;;;;;;;4.25;3.00;;;;;;;13.55;50.55;93959.03;5015382;28;20198;-65
2022/04/23 03:22:51;;;;;;;3.75;2.88;;;;;;;13.53;51.63;93955.84;5001256;28;20238;-65
2022/04/23 03:25:22;;;;;;;4.55;2.83;;;;;;;13.43;51.53;93960.22;5017574;28;20209;-65
2022/04/23 03:27:50;;;;;;;4.40;2.85;;;;;;;13.33;52.40;93965.78;5035200;28;20223;-65
2022/04/23 03:30:20;;;;;;;3.10;2.80;;;;;;;13.31;52.20;93959.84;5017717;28;20292;-65
2022/04/23 03:32:48;;;;;;;4.57;3.00;;;;;;;13.30;52.32;93956.28;5034097;28;20213;-65
2022/04/23 03:35:16;;;;;;;4.03;2.80;;;;;;;13.28;52.32;93971.72;5017871;28;20640;-65
2022/04/23 03:37:44;;;;;;;3.35;2.88;;;;;;;13.20;52.52;93971.69;5035010;28;20187;-65
2022/04/23 03:40:13;;;;;;;3.88;3.15;;;;;;;13.17;52.65;93969.72;5034888;28;20206;-65
2022/04/23 03:42:48;;;;;;;3.25;2.95;;;;;;;13.17;52.51;93978.00;5018293;28;20198;-65
2022/04/23 03:45:18;;;;;;;5.43;3.00;;;;;;;13.17;52.63;93989.09;5017682;28;20202;-65
2022/04/23 03:47:47;;;;;;;4.07;3.45;;;;;;;13.14;52.60;93989.09;5017678;28;20202;-65
2022/04/23 03:50:16;;;;;;;4.40;3.22;;;;;;;13.09;52.50;93989.50;5034543;28;20193;-65
2022/04/23 03:52:45;;;;;;;3.85;3.05;;;;;;;13.08;53.02;93996.22;5034823;28;20518;-65
2022/04/23 03:55:13;;;;;;;5.15;3.20;;;;;;;13.05;52.71;93992.25;5034864;28;20197;-65
2022/04/23 03:57:48;;;;;;;5.78;3.45;;;;;;;13.06;52.76;94004.91;5017544;28;20199;-65
2022/04/23 04:00:20;;;;;;;6.38;3.22;;;;;;;13.08;52.99;93994.25;5034393;28;20744;-65
2022/04/23 04:02:48;;;;;;;5.38;3.95;;;;;;;13.09;52.90;93997.78;5035013;28;20281;-65
2022/04/23 04:05:17;;;;;;;3.90;3.58;;;;;;;13.10;52.98;94004.91;5017520;28;20195;-65
2022/04/23 04:07:46;;;;;;;5.07;3.70;;;;;;;13.08;53.57;93999.00;5034798;28;20190;-65
2022/04/23 04:10:17;;;;;;;5.63;3.38;;;;;;;13.06;53.06;94004.13;5034688;28;20191;-65
2022/04/23 04:12:47;;;;;;;4.72;3.47;;;;;;;13.03;53.26;94002.91;5034636;28;20274;-65
2022/04/23 04:15:16;;;;;;;4.30;3.60;;;;;;;13.04;52.70;94004.53;5034407;28;20609;-65
2022/04/23 04:17:46;;;;;;;4.43;3.35;;;;;;;13.07;53.08;94002.91;5033980;28;20218;-65
2022/04/23 04:20:17;;;;;;;5.05;3.90;;;;;;;13.05;53.50;94005.31;5017982;28;20226;-65
2022/04/23 04:22:46;;;;;;;3.88;3.58;;;;;;;13.02;55.24;94004.13;5018384;28;20229;-65
2022/04/23 04:25:18;;;;;;;11.57;10.25;;;;;;;12.97;56.59;94013.59;5018455;28;20187;-65
2022/04/23 04:27:47;;;;;;;9.00;4.75;;;;;;;12.89;57.06;94012.03;5017591;28;20562;-65
2022/04/23 04:30:15;;;;;;;9.07;4.63;;;;;;;12.81;57.42;94009.63;5018370;28;20191;-65
2022/04/23 04:32:43;;;;;;;7.70;4.22;;;;;;;12.71;57.50;94003.69;5018239;28;20205;-65
2022/04/23 04:35:12;;;;;;;10.48;3.90;;;;;;;12.71;58.30;94011.19;5001178;28;20214;-65
2022/04/23 04:37:39;;;;;;;5.57;3.85;;;;;;;12.64;57.51;94019.47;5001055;28;20211;-65
2022/04/23 04:40:07;;;;;;;8.18;4.70;;;;;;;12.59;57.44;94023.41;5000817;28;20238;-65
2022/04/23 04:42:35;;;;;;;8.90;5.45;;;;;;;12.64;57.88;94028.56;5018172;28;20199;-65
2022/04/23 04:45:06;;;;;;;13.45;6.10;;;;;;;12.68;57.80;94034.13;5001324;28;20253;-65
2022/04/23 04:47:34;;;;;;;15.23;10.32;;;;;;;12.71;58.54;94031.34;5018112;28;20191;-65
2022/04/23 04:50:02;;;;;;;13.73;8.65;;;;;;;12.74;59.36;94040.81;5017966;28;20175;-65
2022/04/23 04:52:30;;;;;;;14.35;9.85;;;;;;;12.76;58.87;94038.47;5017676;28;20217;-65
2022/04/23 04:54:59;;;;;;;13.18;7.95;;;;;;;12.80;58.84;94035.72;5000900;28;20195;-65
2022/04/23 04:57:27;;;;;;;13.63;8.10;;;;;;;12.84;58.57;94042.03;5017913;28;20191;-65
2022/04/23 04:59:55;;;;;;;15.02;7.60;;;;;;;12.84;59.42;94044.81;5000689;28;20219;-65
2022/04/23 05:02:25;;;;;;;11.13;7.85;;;;;;;12.85;58.31;94057.47;5017306;28;20203;-65
2022/04/23 05:04:53;;;;;;;12.73;8.18;;;;;;;12.87;57.89;94060.63;5000758;28;20210;-65
2022/04/23 05:07:21;;;;;;;13.00;8.43;;;;;;;12.90;58.89;94068.94;5017201;28;20203;-65
2022/04/23 05:09:49;;;;;;;10.75;6.93;;;;;;;12.92;57.46;94074.88;5000509;28;20203;-65
2022/04/23 05:12:18;;;;;;;7.40;6.20;;;;;;;12.93;56.67;94079.25;5000361;28;20222;-65
2022/04/23 05:14:46;;;;;;;7.65;5.10;;;;;;;12.96;56.57;94083.19;5017614;28;20184;-65
2022/04/23 05:17:17;;;;;;;6.97;4.50;;;;;;;12.97;56.43;94085.56;5000087;28;20211;-65
2022/04/23 05:19:46;;;;;;;6.25;4.32;;;;;;;12.99;56.26;94082.41;5017493;28;20302;-65
2022/04/23 05:22:17;;;;;;;6.60;4.10;;;;;;;13.01;55.99;94088.34;5017412;28;20201;-65
2022/04/23 05:24:45;;;;;;;4.95;3.42;;;;;;;13.05;55.02;94086.38;5015663;28;20235;-65
2022/04/23 05:27:15;;;;;;;4.28;3.50;;;;;;;13.12;54.72;94091.91;5019694;28;20203;-65
2022/04/23 05:29:43;;;;;;;4.03;3.20;;;;;;;13.19;54.73;94097.47;5037106;28;20682;-65
2022/04/23 05:32:12;;;;;;;3.85;3.38;;;;;;;13.30;54.68;94103.06;5035482;28;20545;-65
2022/04/23 05:34:40;;;;;;;4.05;3.05;;;;;;;13.37;54.85;94102.28;5037017;28;20179;-65
2022/04/23 05:37:10;;;;;;;5.57;3.13;;;;;;;13.43;54.79;94098.69;5035946;28;20212;-65
2022/04/23 05:39:38;;;;;;;4.00;3.03;;;;;;;13.49;54.53;94091.59;5036762;28;20207;-65
2022/04/23 05:42:06;;;;;;;6.70;3.50;;;;;;;13.56;55.50;94101.09;5019072;28;20534;-65
2022/04/23 05:44:37;;;;;;;5.22;3.22;;;;;;;13.62;55.48;94100.31;5036846;28;20191;-65
2022/04/23 05:47:08;;;;;;;5.38;3.30;;;;;;;13.68;56.13;94093.16;5019450;28;20213;-65
2022/04/23 05:49:38;;;;;;;4.47;3.25;;;;;;;13.69;56.88;94094.00;5036199;28;20615;-65
2022/04/23 05:52:07;;;;;;;3.33;3.00;;;;;;;13.71;57.46;94086.06;5036364;28;20202;-65
2022/04/23 05:54:40;;;;;;;3.70;3.03;;;;;;;13.79;57.25;94081.28;5036699;28;20191;-65
2022/04/23 05:57:11;;;;;;;6.13;3.10;;;;;;;13.86;57.28;94084.06;5036707;28;20187;-65
2022/04/23 05:59:42;;;;;;;3.40;3.10;;;;;;;13.94;57.62;94086.44;5019226;28;20276;-65
2022/04/23 06:02:13;;;;;;;3.97;3.28;;;;;;;13.99;57.20;94087.22;5019100;28;20194;-65
2022/04/23 06:04:40;;;;;;;4.45;3.25;;;;;;;14.04;56.98;94082.06;5036225;28;20287;-65
2022/04/23 06:07:08;;;;;;;5.05;3.35;;;;;;;14.09;57.74;94073.34;5036201;28;20190;-65
2022/04/23 06:09:38;;;;;;;4.30;3.55;;;;;;;14.14;57.69;94081.25;5018986;28;20235;-65
2022/04/23 06:12:07;;;;;;;4.75;3.47;;;;;;;14.18;56.67;94084.78;5036166;28;20197;-65
2022/04/23 06:14:35;;;;;;;5.75;3.38;;;;;;;14.26;56.81;94085.56;5018551;28;20209;-66
2022/04/23 06:17:07;;;;;;;5.22;3.20;;;;;;;14.30;56.04;94100.22;5018817;28;20210;-65
2022/04/23 06:19:35;;;;;;;5.28;3.63;;;;;;;14.35;55.54;94099.81;5035785;28;20236;-65
2022/04/23 06:22:02;;;;;;;3.55;3.08;;;;;;;14.40;55.39;94112.47;5018607;28;20530;-65
2022/04/23 06:24:30;;;;;;;6.22;3.88;;;;;;;14.44;56.26;94105.72;5035560;28;20234;-65
2022/04/23 06:27:00;;;;;;;6.25;4.38;;;;;;;14.49;57.72;94110.09;5035786;28;20186;-65
2022/04/23 06:29:28;;;;;;;5.53;4.03;;;;;;;14.54;57.12;94112.47;5035690;28;20183;-65
2022/04/23 06:31:56;;;;;;;3.55;3.22;;;;;;;14.55;56.59;94104.94;5035864;28;20198;-65
2022/04/23 06:34:25;;;;;;;5.40;3.40;;;;;;;14.53;56.83;94105.34;5018473;28;20223;-65
2022/04/23 06:36:53;;;;;;;3.20;2.78;;;;;;;14.55;57.57;94105.72;5018555;28;20218;-65
2022/04/23 06:39:23;;;;;;;4.80;3.00;;;;;;;14.56;57.08;94104.53;5035865;28;20210;-65
2022/04/23 06:41:52;;;;;;;5.00;3.65;;;;;;;14.60;57.27;94107.31;5018061;28;20198;-65
2022/04/23 06:44:25;;;;;;;4.40;3.17;;;;;;;14.58;58.01;94107.69;5033944;28;20208;-65
2022/04/23 06:46:53;;;;;;;6.18;3.65;;;;;;;14.59;58.74;94111.25;5018030;28;20210;-65
2022/04/23 06:49:24;;;;;;;6.85;3.85;;;;;;;14.62;57.88;94102.91;5035776;28;20586;-65
2022/04/23 06:51:52;;;;;;;4.88;3.70;;;;;;;14.64;58.59;94110.84;5035734;28;20252;-65
2022/04/23 06:54:22;;;;;;;3.95;3.25;;;;;;;14.64;58.25;94116.41;5035193;28;20179;-65
2022/04/23 06:56:50;;;;;;;4.55;3.13;;;;;;;14.65;58.06;94117.97;5017942;28;20249;-65
2022/04/23 06:59:18;;;;;;;5.05;2.97;;;;;;;14.62;58.17;94116.78;5017746;28;20214;-65
2022/04/23 07:01:48;;;;;;;4.80;3.38;;;;;;;14.61;58.37;94109.66;5018213;28;20206;-65
2022/04/23 07:04:17;;;;;;;4.40;3.60;;;;;;;14.61;58.85;94115.22;5035365;28;20197;-65
2022/04/23 07:06:45;;;;;;;3.85;3.00;;;;;;;14.61;58.85;94112.44;5035270;28;20196;-65
2022/04/23 07:09:13;;;;;;;3.58;2.90;;;;;;;14.62;59.21;94124.31;5035191;28;20189;-65
2022/04/23 07:11:41;;;;;;;4.68;3.15;;;;;;;14.64;59.62;94122.75;5034427;28;20202;-65
2022/04/23 07:14:09;;;;;;;3.60;3.25;;;;;;;14.66;58.36;94127.88;5035327;28;20183;-65
2022/04/23 07:16:36;;;;;;;4.03;3.08;;;;;;;14.70;59.26;94131.44;5035064;28;20194;-65
2022/04/23 07:19:09;;;;;;;6.07;3.72;;;;;;;14.77;58.55;94130.63;5035211;28;20187;-65
2022/04/23 07:21:39;;;;;;;6.50;4.40;;;;;;;14.81;58.58;94134.94;5035180;28;20182;-65
2022/04/23 07:24:10;;;;;;;4.45;3.30;;;;;;;14.85;57.92;94141.31;5034318;28;20676;-65
2022/04/23 07:26:40;;;;;;;6.78;3.15;;;;;;;14.86;57.66;94142.88;5035309;28;20245;-65
2022/04/23 07:29:13;;;;;;;4.13;2.85;;;;;;;14.88;56.89;94145.25;5017866;28;20298;-65
2022/04/23 07:31:42;;;;;;;3.83;3.47;;;;;;;14.95;58.62;94150.78;5017529;28;20202;-65
2022/04/23 07:39:44;;;;;;;4.65;3.80;;;;;;;15.09;57.66;94161.81;5034800;28;20213;-65
2022/04/23 07:42:13;;;;;;;4.07;3.20;;;;;;;15.11;57.46;94167.78;5034587;28;20633;-65
2022/04/23 07:44:41;;;;;;;2.83;2.58;;;;;;;15.09;58.68;94170.16;5034966;28;20193;-65
2022/04/23 07:47:09;;;;;;;3.15;2.85;;;;;;;15.08;58.97;94174.13;5017712;28;20199;-65
2022/04/23 07:49:38;;;;;;;3.88;2.92;;;;;;;15.07;60.61;94178.09;5017580;28;20253;-65
2022/04/23 07:52:06;;;;;;;3.67;3.17;;;;;;;15.10;60.51;94180.06;5017425;28;20202;-65
2022/04/23 07:54:33;;;;;;;5.35;3.00;;;;;;;15.05;59.82;94185.25;5017530;28;20297;-65
2022/04/23 07:57:00;;;;;;;3.00;2.67;;;;;;;15.06;60.90;94189.59;5038218;28;20213;-65
2022/04/23 07:59:29;;;;;;;4.57;3.05;;;;;;;15.10;61.08;94184.81;5038507;28;20198;-65
2022/04/23 08:01:57;;;;;;;3.35;3.08;;;;;;;15.12;61.81;94190.78;5020968;28;20717;-65
2022/04/23 08:04:25;;;;;;;4.55;2.90;;;;;;;15.12;61.73;94186.00;5021266;28;20289;-65
2022/04/23 08:06:56;;;;;;;6.82;3.33;;;;;;;15.25;62.28;94188.31;5038676;28;20281;-65
2022/04/23 08:09:24;;;;;;;3.70;2.88;;;;;;;15.22;61.32;94186.38;5038558;28;20213;-65
2022/04/23 08:11:52;;;;;;;4.07;3.10;;;;;;;15.31;60.82;94206.16;5037703;28;20206;-65
2022/04/23 08:14:22;;;;;;;2.85;2.50;;;;;;;15.38;60.26;94198.56;5021072;28;20305;-65
2022/04/23 08:16:54;;;;;;;2.40;2.20;;;;;;;15.55;59.53;94208.03;5021509;28;20260;-65
2022/04/23 08:19:23;;;;;;;3.85;2.22;;;;;;;15.67;58.34;94208.78;5021060;28;20209;-65
2022/04/23 08:21:51;;;;;;;3.00;1.90;;;;;;;15.58;58.24;94201.66;5021061;28;20233;-66
2022/04/23 08:24:21;;;;;;;2.47;1.88;;;;;;;15.43;57.95;94204.91;5020339;28;20238;-65
2022/04/23 08:26:49;;;;;;;2.58;2.00;;;;;;;15.60;59.10;94209.59;5038175;28;20227;-65
2022/04/23 08:32:04;;;;;;;5.00;1.85;;;;;;;15.64;56.34;94204.78;5020215;28;20190;-65
2022/04/23 08:34:32;;;;;;;2.20;2.00;;;;;;;15.71;56.64;94202.00;5037637;28;20202;-65
2022/04/23 08:37:03;;;;;;;1.92;1.70;;;;;;;15.85;56.32;94198.34;5037721;28;20190;-65
2022/04/23 08:39:37;;;;;;;4.13;2.10;;;;;;;15.87;55.55;94201.50;5037617;28;20179;-65
2022/04/23 08:42:08;;;;;;;2.55;1.85;;;;;;;15.88;55.67;94203.88;5037929;28;20193;-65
2022/04/23 08:44:37;;;;;;;4.13;1.88;;;;;;;15.99;55.30;94205.78;5037535;28;20190;-65
2022/04/23 08:47:07;;;;;;;2.38;1.60;;;;;;;16.00;53.81;94210.16;5038039;28;20187;-65
2022/04/23 08:49:40;;;;;;;2.60;1.42;;;;;;;15.71;53.65;94210.34;5020551;28;20206;-65
2022/04/23 08:52:17;;;;;;;2.35;1.90;;;;;;;15.55;53.89;94212.78;5020324;28;20206;-65
2022/04/23 08:54:46;;;;;;;3.55;2.05;;;;;;;15.44;54.06;94215.63;5036588;28;20221;-65
2022/04/23 08:57:17;;;;;;;1.63;1.52;;;;;;;15.41;54.83;94217.22;5037275;28;20190;-65
2022/04/23 08:59:45;;;;;;;2.60;1.58;;;;;;;15.40;53.97;94218.44;5020067;28;20217;-65
2022/04/23 09:02:14;;;;;;;2.88;1.98;;;;;;;15.42;54.17;94218.00;5019726;28;20200;-65
2022/04/23 09:04:42;;;;;;;3.22;1.70;;;;;;;15.44;54.69;94215.63;5037055;28;20197;-65
2022/04/23 09:07:19;;;;;;;2.30;1.48;;;;;;;15.45;54.92;94216.41;5036752;28;20281;-65
2022/04/23 09:09:52;;;;;;;4.28;1.95;;;;;;;15.52;54.85;94219.16;5037120;28;20206;-65
2022/04/23 09:12:24;;;;;;;1.77;1.45;;;;;;;15.67;54.58;94215.13;5037387;28;20205;-65
2022/04/23 09:14:52;;;;;;;2.70;1.50;;;;;;;15.85;54.05;94207.47;5020310;28;20203;-65
2022/04/23 09:25:46;;;;;;;1.92;1.75;;;;;;;16.01;53.43;94211.72;5037000;28;20213;-65
2022/04/23 09:28:18;;;;;;;2.50;1.67;;;;;;;15.93;53.77;94208.19;5019727;28;20220;-65
2022/04/23 09:30:48;;;;;;;3.03;1.80;;;;;;;15.88;53.60;94212.22;5020001;28;20194;-65
2022/04/23 09:33:17;;;;;;;2.67;1.70;;;;;;;15.78;53.49;94212.28;5036835;28;20215;-65
2022/04/23 09:35:55;;;;;;;4.10;1.98;;;;;;;15.74;54.15;94205.97;5035884;28;20205;-65
2022/04/23 09:38:23;;;;;;;2.95;2.45;;;;;;;15.70;53.86;94196.84;5035919;28;20202;-65
2022/04/23 09:40:53;;;;;;;3.80;2.78;;;;;;;15.64;54.45;94197.22;5019323;28;20222;-65
2022/04/23 09:43:29;;;;;;;4.85;2.03;;;;;;;15.67;54.38;94187.34;5019437;28;20210;-65
2022/04/23 09:46:02;;;;;;;2.22;1.80;;;;;;;15.71;54.78;94190.88;5035850;28;20205;-65
2022/04/23 09:48:31;;;;;;;2.63;2.00;;;;;;;15.75;54.19;94179.72;5036731;28;20190;-65
2022/04/23 09:50:59;;;;;;;2.67;2.17;;;;;;;15.81;54.35;94178.09;5036277;28;20202;-65
2022/04/23 09:53:29;;;;;;;4.38;2.30;;;;;;;16.06;54.98;94173.16;5036360;28;20198;-65
2022/04/23 09:56:01;;;;;;;1.90;1.80;;;;;;;16.34;55.18;94177.69;5036375;28;20203;-65
2022/04/23 09:58:30;;;;;;;4.15;2.10;;;;;;;16.67;55.08;94180.16;5036232;28;20187;-65
2022/04/23 10:00:59;;;;;;;2.78;1.92;;;;;;;16.94;54.84;94169.94;5019373;28;20301;-65
2022/04/23 10:03:32;;;;;;;2.28;1.90;;;;;;;17.21;54.44;94170.00;5036264;28;20194;-65
2022/04/23 10:06:02;;;;;;;2.78;2.05;;;;;;;17.16;53.88;94164.09;5036402;28;20189;-65
2022/04/23 10:08:31;;;;;;;3.67;2.17;;;;;;;17.21;53.82;94164.44;5036368;28;20253;-65
2022/04/23 10:11:09;;;;;;;2.13;1.92;;;;;;;17.23;51.92;94159.22;5036042;28;20210;-65
2022/04/23 10:13:40;;;;;;;3.17;2.00;;;;;;;17.31;52.45;94157.91;5035968;28;20182;-65
2022/04/23 10:16:10;;;;;;;4.03;1.90;;;;;;;17.38;52.39;94159.03;5035972;28;20194;-65
2022/04/23 10:18:39;;;;;;;5.80;2.50;;;;;;;17.28;51.74;94153.19;5036761;28;20213;-65
2022/04/23 10:21:08;;;;;;;4.05;2.22;;;;;;;17.36;51.79;94158.66;5035814;28;20214;-65
2022/04/23 10:23:46;;;;;;;2.97;2.20;;;;;;;17.62;53.48;94155.13;5018658;28;20234;-65
2022/04/23 10:26:48;;;;;;;3.67;2.17;;;;;;;17.85;53.52;94151.63;5018398;28;20314;-65
2022/04/23 10:29:22;;;;;;;3.95;2.63;;;;;;;18.15;52.89;94147.94;5018452;28;20516;-65
2022/04/23 10:32:24;;;;;;;5.18;2.55;;;;;;;18.47;51.25;94144.59;5018254;28;20191;-65
2022/04/23 10:34:53;;;;;;;5.22;2.30;;;;;;;18.61;49.34;94151.16;5036193;28;20218;-65
2022/04/23 10:37:22;;;;;;;3.42;2.30;;;;;;;18.47;50.65;94149.41;5035864;28;20190;-65
2022/04/23 10:40:16;;;;;;;3.95;2.60;;;;;;;18.29;49.11;94141.34;5018036;28;20202;-65
2022/04/23 10:43:12;;;;;;;5.95;2.78;;;;;;;18.11;49.55;94152.00;5035598;28;20195;-65
2022/04/23 10:45:41;;;;;;;4.72;3.00;;;;;;;17.88;49.34;94150.00;5035304;28;20217;-65
2022/04/23 10:48:24;;;;;;;5.20;2.50;;;;;;;17.68;49.79;94152.63;5035676;28;20182;-65
2022/04/23 10:51:06;;;;;;;4.38;2.38;;;;;;;17.49;50.51;94151.31;5035763;28;20183;-65
2022/04/23 10:53:52;;;;;;;4.90;2.40;;;;;;;17.43;51.11;94156.59;5018427;28;20193;-65
2022/04/23 10:56:23;;;;;;;6.43;2.25;;;;;;;17.43;51.51;94156.59;5035219;28;20183;-65
2022/04/23 10:58:53;;;;;;;4.68;2.67;;;;;;;17.43;52.11;94144.63;5017904;28;20198;-65
2022/04/23 11:01:23;;;;;;;5.90;2.80;;;;;;;17.42;51.79;94143.06;5017998;28;20765;-65
2022/04/23 11:04:13;;;;;;;5.43;2.95;;;;;;;17.50;52.48;94145.34;5017699;28;20293;-65
2022/04/23 11:12:37;;;;;;;4.55;2.40;;;;;;;18.41;50.04;94139.94;5034598;28;20233;-65
2022/04/23 11:15:20;;;;;;;4.47;2.42;;;;;;;18.41;48.80;94142.72;5018142;28;20257;-65
2022/04/23 11:17:55;;;;;;;3.58;2.40;;;;;;;18.41;49.34;94142.72;5017646;28;20206;-65
2022/04/23 11:20:36;;;;;;;4.25;2.55;;;;;;;18.24;47.99;94150.22;5017719;28;20194;-65
2022/04/23 11:23:05;;;;;;;7.50;2.47;;;;;;;18.33;48.78;94158.03;5033918;28;20240;-65
2022/04/23 11:25:33;;;;;;;6.50;2.35;;;;;;;18.34;47.97;94149.25;5035047;28;20210;-65
2022/04/23 11:28:18;;;;;;;4.22;2.10;;;;;;;18.32;48.39;94151.66;5017686;28;20206;-65
2022/04/23 11:30:49;;;;;;;4.35;2.10;;;;;;;18.34;49.02;94160.41;5034182;28;20237;-65
2022/04/23 11:33:17;;;;;;;3.75;2.20;;;;;;;18.35;48.52;94153.59;5034768;28;20193;-65
2022/04/23 11:35:45;;;;;;;3.08;2.20;;;;;;;18.28;47.27;94153.72;5017766;28;20190;-65
2022/04/23 11:38:23;;;;;;;6.88;2.35;;;;;;;18.15;48.54;94158.31;5017215;28;20206;-65
2022/04/23 11:40:52;;;;;;;3.50;2.40;;;;;;;18.01;48.88;94174.09;5017734;28;20210;-65
2022/04/23 11:43:37;;;;;;;3.95;2.10;;;;;;;17.97;48.44;94167.78;5034949;28;20187;-65
2022/04/23 11:46:08;;;;;;;4.60;2.28;;;;;;;17.92;48.50;94175.81;5017218;28;20600;-65
2022/04/23 11:48:46;;;;;;;4.88;2.40;;;;;;;17.84;49.61;94174.38;5017830;28;20206;-65
2022/04/23 11:51:18;;;;;;;6.18;2.15;;;;;;;17.64;52.51;94171.41;5017650;28;20198;-65
2022/04/23 11:53:57;;;;;;;5.20;1.88;;;;;;;17.45;54.37;94168.09;5017582;28;20217;-65
2022/04/23 11:56:32;;;;;;;4.45;2.20;;;;;;;17.30;55.09;94173.06;5033577;28;20543;-65
2022/04/23 11:59:03;;;;;;;3.70;1.73;;;;;;;17.22;54.60;94171.59;5017537;28;20228;-65
2022/04/23 12:01:32;;;;;;;5.05;1.70;;;;;;;17.20;53.98;94167.63;5017527;28;20665;-65
2022/04/23 12:04:00;;;;;;;4.03;1.70;;;;;;;17.69;54.06;94159.81;5033906;28;20222;-65
2022/04/23 12:06:28;;;;;;;2.78;1.60;;;;;;;18.09;52.18;94160.81;5017689;28;20240;-65
2022/04/23 12:09:07;;;;;;;2.88;1.63;;;;;;;18.41;51.47;94159.47;5017409;28;20221;-65
2022/04/23 12:11:35;;;;;;;1.67;1.58;;;;;;;18.61;49.99;94165.91;5017429;28;20225;-65